Time;durP1;ratioP1;P1;durP2;ratioP2;P2;SDS_P1;SDS_P2;PMS_P1;PMS_P2;Temp;Humidity;BMP_temperature;BMP_pressure;BME280_temperature;BME280_humidity;BME280_pressure;Samples;Min_cycle;Max_cycle;Signal;HPM_P1;HPM_P2
2023/06/29 00:01:03;;;;;;;27.83;18.33;;;;;;;19.69;100.00;101493.22;5015370;28;20034;-65
2023/06/29 00:03:31;;;;;;;28.10;17.98;;;;;;;19.61;100.00;101496.06;5015398;28;20028;-62
2023/06/29 00:05:58;;;;;;;27.35;18.10;;;;;;;19.59;100.00;101492.56;5015253;28;20101;-63
2023/06/29 00:08:24;;;;;;;28.92;18.95;;;;;;;19.56;100.00;101491.75;5015261;28;20029;-64
2023/06/29 00:10:53;;;;;;;27.23;17.90;;;;;;;19.64;100.00;101479.94;5015538;28;20037;-62
2023/06/29 00:13:19;;;;;;;29.52;18.65;;;;;;;19.69;100.00;101477.13;5015326;28;20054;-59
2023/06/29 00:15:45;;;;;;;28.35;19.27;;;;;;;19.64;100.00;101469.22;5015078;28;20439;-60
2023/06/29 00:18:12;;;;;;;29.88;19.02;;;;;;;19.62;100.00;101472.84;5015061;28;20112;-62
2023/06/29 00:20:38;;;;;;;28.55;18.77;;;;;;;19.55;100.00;101465.84;5014960;28;20080;-59
2023/06/29 00:23:04;;;;;;;29.00;19.25;;;;;;;19.50;100.00;101472.19;5014890;28;20029;-63
2023/06/29 00:25:29;;;;;;;30.02;20.50;;;;;;;19.46;100.00;101467.81;5015011;28;20018;-59
2023/06/29 00:27:54;;;;;;;30.50;20.25;;;;;;;19.41;100.00;101461.69;5014665;28;20045;-59
2023/06/29 00:30:20;;;;;;;29.65;20.20;;;;;;;19.43;100.00;101465.22;5014736;28;20026;-63
2023/06/29 00:32:46;;;;;;;29.92;19.70;;;;;;;19.48;100.00;101463.31;5014901;28;20472;-69
2023/06/29 00:35:13;;;;;;;29.75;20.48;;;;;;;19.52;100.00;101456.06;4997272;28;20556;-69
2023/06/29 00:37:39;;;;;;;30.30;20.67;;;;;;;19.45;100.00;101462.50;4997308;28;20380;-69
2023/06/29 00:40:05;;;;;;;29.10;20.00;;;;;;;19.40;100.00;101459.91;5014747;28;20030;-69
2023/06/29 00:42:30;;;;;;;29.15;19.50;;;;;;;19.33;100.00;101458.28;5014583;28;20037;-69
2023/06/29 00:44:56;;;;;;;30.27;20.05;;;;;;;19.30;100.00;101459.22;5014461;28;20030;-69
2023/06/29 00:47:22;;;;;;;28.83;19.75;;;;;;;19.37;100.00;101460.00;5014498;28;20083;-69
2023/06/29 00:49:47;;;;;;;30.40;19.83;;;;;;;19.34;100.00;101454.72;5014621;28;20164;-69
2023/06/29 00:52:13;;;;;;;29.45;19.52;;;;;;;19.42;100.00;101452.72;5014274;28;20124;-69
2023/06/29 00:54:38;;;;;;;29.35;19.13;;;;;;;19.45;100.00;101455.31;5014437;28;20029;-69
2023/06/29 00:57:04;;;;;;;27.65;18.55;;;;;;;19.43;100.00;101451.81;5014254;28;20037;-68
2023/06/29 00:59:29;;;;;;;28.45;18.73;;;;;;;19.42;100.00;101449.16;5014180;28;20045;-68
2023/06/29 01:01:55;;;;;;;29.15;19.52;;;;;;;19.34;100.00;101446.66;5014243;28;20069;-68
2023/06/29 01:04:25;;;;;;;28.52;18.95;;;;;;;19.27;100.00;101442.34;5014121;28;20026;-69
2023/06/29 01:07:15;;;;;;;29.60;19.23;;;;;;;19.28;100.00;101430.69;5013984;28;20026;-68
2023/06/29 01:09:44;;;;;;;30.10;19.70;;;;;;;19.25;100.00;101438.81;5013998;28;20029;-69
2023/06/29 01:12:12;;;;;;;28.50;18.77;;;;;;;19.29;100.00;101445.88;5014173;28;20141;-69
2023/06/29 01:14:39;;;;;;;29.17;18.55;;;;;;;19.33;100.00;101445.75;4996296;28;20030;-69
2023/06/29 01:17:06;;;;;;;29.88;19.10;;;;;;;19.34;100.00;101439.50;5013709;28;20088;-69
2023/06/29 01:19:33;;;;;;;29.63;19.45;;;;;;;19.33;100.00;101436.84;5014087;28;20042;-63
2023/06/29 01:22:10;;;;;;;29.25;19.20;;;;;;;19.27;100.00;101439.69;4996199;28;20022;-62
2023/06/29 01:24:41;;;;;;;29.90;19.10;;;;;;;19.30;100.00;101436.94;5013728;28;20049;-66
2023/06/29 01:27:07;;;;;;;29.50;18.63;;;;;;;19.27;100.00;101434.31;5013552;28;20362;-67
2023/06/29 01:29:33;;;;;;;29.10;18.63;;;;;;;19.32;100.00;101429.72;5013870;28;20022;-67
2023/06/29 01:32:03;;;;;;;28.92;18.63;;;;;;;19.35;100.00;101429.66;5013595;28;20030;-68
2023/06/29 01:34:30;;;;;;;30.27;18.63;;;;;;;19.40;100.00;101425.06;5013137;28;20037;-68
2023/06/29 01:37:04;;;;;;;29.48;18.70;;;;;;;19.39;100.00;101431.34;5013673;28;20484;-63
2023/06/29 01:39:40;;;;;;;29.15;18.83;;;;;;;19.43;100.00;101426.81;5013630;28;20048;-68
2023/06/29 01:42:06;;;;;;;30.02;18.80;;;;;;;19.45;100.00;101424.97;5013497;28;20022;-60
2023/06/29 01:44:32;;;;;;;29.00;18.83;;;;;;;19.45;100.00;101422.28;5013364;28;20041;-66
2023/06/29 01:46:59;;;;;;;29.17;18.20;;;;;;;19.49;100.00;101424.84;5013474;28;20030;-65
2023/06/29 01:49:24;;;;;;;29.20;18.13;;;;;;;19.50;100.00;101423.94;5013304;28;20052;-64
2023/06/29 01:51:49;;;;;;;29.30;17.52;;;;;;;19.44;100.00;101416.03;5013415;28;20030;-62
2023/06/29 01:54:15;;;;;;;29.30;18.73;;;;;;;19.44;100.00;101417.81;5013484;28;20451;-61
2023/06/29 01:56:40;;;;;;;28.70;18.25;;;;;;;19.42;100.00;101415.19;5013157;28;20033;-64
2023/06/29 01:59:05;;;;;;;28.10;17.80;;;;;;;19.44;100.00;101417.81;5013430;28;20053;-66
2023/06/29 02:01:31;;;;;;;28.92;18.08;;;;;;;19.44;100.00;101424.09;5013409;28;20488;-65
2023/06/29 02:03:56;;;;;;;27.35;18.27;;;;;;;19.43;100.00;101416.97;5012948;28;20028;-64
2023/06/29 02:06:22;;;;;;;29.23;17.73;;;;;;;19.46;100.00;101408.84;5013314;28;20465;-68
2023/06/29 02:08:48;;;;;;;28.30;17.80;;;;;;;19.50;100.00;101412.34;5013235;28;20381;-67
2023/06/29 02:11:13;;;;;;;27.88;17.98;;;;;;;19.45;100.00;101407.06;5013055;28;20037;-68
2023/06/29 02:13:38;;;;;;;27.70;17.10;;;;;;;19.49;100.00;101403.41;5013464;28;20377;-62
2023/06/29 02:16:04;;;;;;;28.73;17.75;;;;;;;19.50;100.00;101407.84;5012948;28;20033;-68
2023/06/29 02:18:30;;;;;;;28.77;18.27;;;;;;;19.48;100.00;101393.63;5012762;28;20049;-68
2023/06/29 02:20:55;;;;;;;28.55;18.42;;;;;;;19.47;100.00;101405.25;5013096;28;20026;-68
2023/06/29 02:23:20;;;;;;;27.75;17.88;;;;;;;19.47;100.00;101397.22;5012886;28;20037;-67
2023/06/29 02:25:46;;;;;;;28.38;18.55;;;;;;;19.44;100.00;101402.66;4995345;28;20037;-67
2023/06/29 02:28:11;;;;;;;28.63;18.35;;;;;;;19.44;100.00;101399.06;5012878;28;20045;-68
2023/06/29 02:30:36;;;;;;;28.35;18.52;;;;;;;19.42;100.00;101399.09;5012796;28;20489;-66
2023/06/29 02:33:02;;;;;;;27.33;17.48;;;;;;;19.45;100.00;101400.84;5013031;28;20057;-61
2023/06/29 02:35:27;;;;;;;28.38;18.55;;;;;;;19.37;100.00;101395.66;5012860;28;20030;-67
2023/06/29 02:37:53;;;;;;;28.58;18.48;;;;;;;19.31;100.00;101385.97;5013005;28;20095;-67
2023/06/29 02:40:18;;;;;;;28.80;18.90;;;;;;;19.29;100.00;101386.91;5012851;28;20050;-67
2023/06/29 02:42:44;;;;;;;29.67;19.63;;;;;;;19.23;100.00;101387.06;5013127;28;20038;-68
2023/06/29 02:45:09;;;;;;;29.85;19.35;;;;;;;19.24;100.00;101391.50;5013845;28;20056;-68
2023/06/29 02:47:34;;;;;;;29.42;19.48;;;;;;;19.28;100.00;101382.47;5016779;28;20038;-67
2023/06/29 02:50:00;;;;;;;29.85;18.80;;;;;;;19.29;100.00;101381.53;5016522;28;20034;-68
2023/06/29 02:52:25;;;;;;;28.92;18.73;;;;;;;19.30;100.00;101377.97;5016626;28;20088;-68
2023/06/29 02:54:51;;;;;;;28.17;18.20;;;;;;;19.31;100.00;101377.06;5016961;28;20026;-67
2023/06/29 02:57:16;;;;;;;29.65;19.98;;;;;;;19.30;100.00;101381.50;5016591;28;20117;-67
2023/06/29 02:59:41;;;;;;;28.63;18.35;;;;;;;19.27;100.00;101378.03;5016396;28;20104;-67
2023/06/29 03:02:07;;;;;;;30.02;19.52;;;;;;;19.22;100.00;101377.25;5016424;28;20038;-69
2023/06/29 03:04:32;;;;;;;29.80;19.42;;;;;;;19.17;100.00;101378.22;5016628;28;20477;-69
2023/06/29 03:06:57;;;;;;;30.65;20.08;;;;;;;19.09;100.00;101369.50;5016274;28;20548;-68
2023/06/29 03:09:23;;;;;;;30.70;19.50;;;;;;;19.09;100.00;101372.19;5016481;28;20041;-68
2023/06/29 03:11:48;;;;;;;31.05;20.55;;;;;;;19.06;100.00;101368.69;5016326;28;20428;-69
2023/06/29 03:14:13;;;;;;;30.58;19.55;;;;;;;19.04;100.00;101371.41;5016396;28;20061;-64
2023/06/29 03:16:39;;;;;;;30.77;19.70;;;;;;;19.08;100.00;101369.53;5016546;28;20033;-69
2023/06/29 03:19:04;;;;;;;30.45;20.20;;;;;;;19.08;100.00;101365.06;5015722;28;20148;-69
2023/06/29 03:21:30;;;;;;;29.75;19.75;;;;;;;19.08;100.00;101370.41;5016474;28;20038;-68
2023/06/29 03:23:55;;;;;;;31.40;20.40;;;;;;;19.08;100.00;101367.75;5016275;28;20040;-68
2023/06/29 03:26:20;;;;;;;31.25;19.95;;;;;;;19.12;100.00;101366.75;5015933;28;20092;-64
2023/06/29 03:28:46;;;;;;;33.42;20.85;;;;;;;19.11;100.00;101372.16;5016122;28;20130;-69
2023/06/29 03:31:11;;;;;;;30.88;20.60;;;;;;;19.08;100.00;101366.88;5015885;28;20038;-68
2023/06/29 03:33:36;;;;;;;31.40;20.92;;;;;;;19.08;100.00;101358.84;5016025;28;20042;-68
2023/06/29 03:36:03;;;;;;;31.77;21.67;;;;;;;19.09;100.00;101369.50;5016012;28;20101;-68
2023/06/29 03:38:28;;;;;;;32.58;20.92;;;;;;;19.09;100.00;101358.78;5015934;28;20491;-68
2023/06/29 03:40:54;;;;;;;31.83;21.13;;;;;;;19.08;100.00;101354.34;5015655;28;20113;-69
2023/06/29 03:43:19;;;;;;;31.80;21.40;;;;;;;19.08;100.00;101362.38;5015833;28;20117;-69
2023/06/29 03:45:44;;;;;;;34.30;21.48;;;;;;;19.08;100.00;101361.50;5015533;28;20124;-67
2023/06/29 03:48:09;;;;;;;31.95;21.10;;;;;;;19.07;100.00;101355.25;4997850;28;20073;-67
2023/06/29 03:50:35;;;;;;;30.85;21.23;;;;;;;19.07;100.00;101355.25;5015613;28;20030;-70
2023/06/29 03:53:01;;;;;;;32.03;21.67;;;;;;;19.08;100.00;101359.69;5015817;28;20037;-69
2023/06/29 03:55:26;;;;;;;32.90;22.35;;;;;;;19.09;100.00;101361.47;5015260;28;20475;-63
2023/06/29 03:57:51;;;;;;;33.05;21.58;;;;;;;19.09;100.00;101364.16;5015480;28;20030;-62
2023/06/29 04:00:17;;;;;;;31.58;21.35;;;;;;;19.07;100.00;101352.56;5015510;28;20033;-64
2023/06/29 04:02:43;;;;;;;32.47;20.98;;;;;;;19.09;100.00;101352.53;5015678;28;20030;-62
2023/06/29 04:05:09;;;;;;;32.85;21.27;;;;;;;19.11;100.00;101346.22;5015332;28;20384;-66
2023/06/29 04:07:34;;;;;;;33.08;21.63;;;;;;;19.13;100.00;101348.88;5015496;28;20069;-62
2023/06/29 04:10:00;;;;;;;31.58;21.15;;;;;;;19.13;100.00;101347.09;5015434;28;20026;-66
2023/06/29 04:12:25;;;;;;;33.28;21.42;;;;;;;19.16;100.00;101346.13;5015278;28;20541;-66
2023/06/29 04:14:51;;;;;;;32.00;20.95;;;;;;;19.15;100.00;101345.25;5015165;28;20026;-63
2023/06/29 04:17:16;;;;;;;36.78;21.08;;;;;;;19.15;100.00;101336.34;5011134;28;20096;-65
2023/06/29 04:19:41;;;;;;;32.20;20.70;;;;;;;19.14;100.00;101331.88;5015269;28;20392;-59
2023/06/29 04:22:07;;;;;;;31.52;20.75;;;;;;;19.15;100.00;101342.56;5014912;28;20480;-59
2023/06/29 04:24:32;;;;;;;32.95;21.77;;;;;;;19.15;100.00;101344.38;5015328;28;20034;-64
2023/06/29 04:26:57;;;;;;;32.47;20.92;;;;;;;19.14;100.00;101338.13;5014760;28;20057;-59
2023/06/29 04:29:23;;;;;;;32.63;21.55;;;;;;;19.14;100.00;101351.50;4997480;28;20084;-60
2023/06/29 04:31:49;;;;;;;31.63;20.70;;;;;;;19.15;100.00;101337.22;5015040;28;20030;-63
2023/06/29 04:34:17;;;;;;;32.10;20.67;;;;;;;19.17;100.00;101330.00;5014950;28;20030;-59
2023/06/29 04:36:46;;;;;;;31.45;21.35;;;;;;;19.16;100.00;101333.63;5014922;28;20096;-63
2023/06/29 04:39:13;;;;;;;31.55;21.45;;;;;;;19.17;100.00;101335.34;5014762;28;20037;-64
2023/06/29 04:41:40;;;;;;;31.90;21.50;;;;;;;19.14;100.00;101346.16;5014555;28;20088;-59
2023/06/29 04:44:06;;;;;;;33.05;21.92;;;;;;;19.15;100.00;101337.22;5014481;28;20064;-62
2023/06/29 04:46:31;;;;;;;32.97;21.63;;;;;;;19.19;100.00;101338.00;5014614;28;20453;-61
2023/06/29 04:48:56;;;;;;;32.20;21.52;;;;;;;19.22;100.00;101329.00;5014352;28;20044;-67
2023/06/29 04:51:22;;;;;;;32.58;21.50;;;;;;;19.21;100.00;101324.56;5014635;28;20108;-66
2023/06/29 04:53:47;;;;;;;34.10;21.73;;;;;;;19.21;100.00;101333.50;5014323;28;20030;-65
2023/06/29 04:56:13;;;;;;;31.95;21.77;;;;;;;19.20;100.00;101329.06;5014254;28;20524;-68
2023/06/29 04:58:38;;;;;;;33.78;21.88;;;;;;;19.17;100.00;101334.50;5014424;28;20065;-67
2023/06/29 05:01:04;;;;;;;31.33;21.63;;;;;;;19.19;100.00;101329.97;5014188;28;20030;-66
2023/06/29 05:03:29;;;;;;;33.35;23.00;;;;;;;19.15;100.00;101331.84;5013975;28;20141;-67
2023/06/29 05:05:55;;;;;;;32.50;22.33;;;;;;;19.13;100.00;101336.38;5014495;28;20473;-68
2023/06/29 05:08:20;;;;;;;32.50;21.75;;;;;;;19.17;100.00;101338.03;5013231;28;20073;-68
2023/06/29 05:10:45;;;;;;;31.88;21.80;;;;;;;19.19;100.00;101342.50;5014171;28;20037;-67
2023/06/29 05:13:11;;;;;;;33.83;22.30;;;;;;;19.23;100.00;101333.47;5014112;28;20030;-67
2023/06/29 05:15:36;;;;;;;32.75;22.02;;;;;;;19.24;100.00;101332.56;5013900;28;20109;-67
2023/06/29 05:18:01;;;;;;;33.67;22.52;;;;;;;19.24;100.00;101336.09;5010316;28;20427;-61
2023/06/29 05:20:27;;;;;;;32.58;21.83;;;;;;;19.20;100.00;101334.41;5010741;28;20030;-62
2023/06/29 05:22:52;;;;;;;31.70;22.17;;;;;;;19.21;100.00;101329.91;5002849;28;20038;-60
2023/06/29 05:25:18;;;;;;;33.33;22.70;;;;;;;19.21;100.00;101329.91;5003717;28;20030;-58
2023/06/29 05:27:43;;;;;;;33.45;22.42;;;;;;;19.17;100.00;101330.00;5001741;28;20089;-60
2023/06/29 05:30:09;;;;;;;32.42;22.55;;;;;;;19.20;100.00;101325.50;5008625;28;20067;-68
2023/06/29 05:32:35;;;;;;;33.10;22.08;;;;;;;19.17;100.00;101330.00;5012982;28;20477;-68
2023/06/29 05:35:01;;;;;;;34.50;22.30;;;;;;;19.20;100.00;101329.06;5012714;28;20037;-69
2023/06/29 05:37:27;;;;;;;33.08;22.38;;;;;;;19.22;100.00;101331.69;5012433;28;20034;-69
2023/06/29 05:39:54;;;;;;;33.67;22.23;;;;;;;19.23;100.00;101328.09;5012670;28;20030;-69
2023/06/29 05:42:19;;;;;;;32.22;22.40;;;;;;;19.27;100.00;101332.47;5014199;28;20064;-65
2023/06/29 05:44:45;;;;;;;31.17;21.48;;;;;;;19.31;100.00;101316.28;5012355;28;20057;-68
2023/06/29 05:47:10;;;;;;;33.20;21.92;;;;;;;19.44;100.00;101324.00;5012560;28;20026;-65
2023/06/29 05:49:35;;;;;;;32.30;21.35;;;;;;;19.47;100.00;101330.19;5012491;28;20068;-65
2023/06/29 05:52:01;;;;;;;32.88;21.20;;;;;;;19.47;100.00;101321.25;5012484;28;20061;-69
2023/06/29 05:54:26;;;;;;;32.35;21.50;;;;;;;19.54;100.00;101321.97;5012149;28;20473;-68
2023/06/29 05:56:51;;;;;;;31.88;21.77;;;;;;;19.55;100.00;101321.06;5012522;28;20034;-67
2023/06/29 05:59:17;;;;;;;33.17;21.42;;;;;;;19.52;100.00;101328.25;5012271;28;20057;-68
2023/06/29 06:01:42;;;;;;;31.83;21.00;;;;;;;19.59;100.00;101320.06;5012261;28;20033;-69
2023/06/29 06:04:07;;;;;;;31.40;20.52;;;;;;;19.65;100.00;101318.09;5012315;28;20484;-67
2023/06/29 06:06:33;;;;;;;30.98;20.08;;;;;;;19.73;100.00;101312.56;5011923;28;20037;-68
2023/06/29 06:08:58;;;;;;;31.77;20.42;;;;;;;19.81;100.00;101318.59;5012237;28;20044;-69
2023/06/29 06:11:24;;;;;;;31.63;20.45;;;;;;;19.92;100.00;101314.75;5010475;28;20113;-61
2023/06/29 06:13:50;;;;;;;30.50;19.83;;;;;;;19.99;100.00;101319.03;5007944;28;20465;-70
2023/06/29 06:16:15;;;;;;;29.83;18.55;;;;;;;19.97;100.00;101312.84;5012030;28;20026;-63
2023/06/29 06:18:40;;;;;;;30.58;19.15;;;;;;;20.03;100.00;101315.34;4974269;28;1087619;-63
2023/06/29 06:21:06;;;;;;;30.25;18.13;;;;;;;20.14;100.00;101306.97;4995334;28;20459;-63
2023/06/29 06:23:31;;;;;;;29.52;17.83;;;;;;;20.21;100.00;101313.94;5012960;28;20037;-65
2023/06/29 06:25:57;;;;;;;29.63;17.73;;;;;;;20.30;100.00;101316.38;5012775;28;20454;-65
2023/06/29 06:28:25;;;;;;;28.45;17.55;;;;;;;20.43;100.00;101314.22;5012979;28;20038;-63
2023/06/29 06:30:51;;;;;;;27.83;16.80;;;;;;;20.58;100.00;101306.63;5012239;28;20037;-64
2023/06/29 06:33:16;;;;;;;27.83;16.60;;;;;;;20.62;100.00;101306.50;5012768;28;20030;-63
2023/06/29 06:35:42;;;;;;;28.42;16.55;;;;;;;20.59;100.00;101303.00;5012718;28;20378;-63
2023/06/29 06:38:08;;;;;;;28.33;16.10;;;;;;;20.66;100.00;101304.59;5012964;28;20030;-63
2023/06/29 06:40:33;;;;;;;27.15;16.13;;;;;;;20.69;100.00;101308.09;5012500;28;20026;-60
2023/06/29 06:42:59;;;;;;;28.27;16.30;;;;;;;20.82;100.00;101307.72;4994784;28;20026;-63
2023/06/29 06:45:24;;;;;;;26.35;15.55;;;;;;;20.84;100.00;101309.44;5012366;28;20469;-60
2023/06/29 06:47:49;;;;;;;26.50;15.98;;;;;;;20.73;100.00;101304.38;5012390;28;20045;-61
2023/06/29 06:50:15;;;;;;;26.60;15.63;;;;;;;20.67;100.00;101306.38;5012961;28;20030;-64
2023/06/29 06:52:40;;;;;;;27.67;15.85;;;;;;;20.66;100.00;101310.88;5012578;28;20022;-63
2023/06/29 06:55:06;;;;;;;26.33;15.65;;;;;;;20.71;100.00;101308.06;5014307;28;20069;-63
2023/06/29 06:57:32;;;;;;;27.08;15.00;;;;;;;20.81;100.00;101303.25;5012723;28;20034;-63
2023/06/29 06:59:57;;;;;;;27.20;15.43;;;;;;;20.87;100.00;101305.78;5008509;28;20088;-64
2023/06/29 07:02:22;;;;;;;27.45;14.52;;;;;;;20.94;100.00;101307.34;5012755;28;20026;-62
2023/06/29 07:04:48;;;;;;;26.52;15.70;;;;;;;21.07;100.00;101311.38;5012450;28;20068;-72
2023/06/29 07:07:13;;;;;;;25.60;15.00;;;;;;;21.34;100.00;101313.22;5012439;28;20026;-68
2023/06/29 07:09:39;;;;;;;26.00;15.20;;;;;;;21.48;100.00;101307.38;5012563;28;20603;-71
2023/06/29 07:12:05;;;;;;;26.73;15.00;;;;;;;21.52;100.00;101306.38;5012363;28;20121;-65
2023/06/29 07:14:31;;;;;;;26.73;15.80;;;;;;;21.65;100.00;101307.69;5012452;28;20481;-67
2023/06/29 07:16:57;;;;;;;27.42;16.05;;;;;;;21.74;100.00;101304.72;5012506;28;20025;-67
2023/06/29 07:19:22;;;;;;;28.75;15.80;;;;;;;21.90;100.00;101307.72;5011702;28;20126;-69
2023/06/29 07:21:48;;;;;;;26.70;15.95;;;;;;;21.98;100.00;101310.13;5013014;28;20109;-65
2023/06/29 07:24:13;;;;;;;27.70;15.93;;;;;;;21.96;100.00;101303.94;5014400;28;20088;-70
2023/06/29 07:26:39;;;;;;;27.80;15.60;;;;;;;22.18;100.00;101300.44;5012070;28;20054;-68
2023/06/29 07:29:05;;;;;;;27.48;15.90;;;;;;;22.35;100.00;101313.31;5012045;28;20045;-68
2023/06/29 07:31:31;;;;;;;29.83;16.73;;;;;;;22.28;100.00;101308.16;5013424;28;20358;-68
2023/06/29 07:33:56;;;;;;;28.10;16.27;;;;;;;22.22;100.00;101308.38;4998128;28;20465;-66
2023/06/29 07:36:23;;;;;;;27.75;16.08;;;;;;;22.10;100.00;101300.75;5015884;28;20481;-67
2023/06/29 07:38:49;;;;;;;27.60;16.17;;;;;;;22.01;100.00;101298.41;5015858;28;20026;-67
2023/06/29 07:41:16;;;;;;;27.73;16.58;;;;;;;22.03;100.00;101296.50;5015853;28;20121;-65
2023/06/29 07:43:46;;;;;;;28.90;17.35;;;;;;;22.05;100.00;101300.03;5015218;28;20034;-67
2023/06/29 07:46:11;;;;;;;27.50;16.58;;;;;;;22.07;100.00;101292.78;5015742;28;20037;-68
2023/06/29 07:48:36;;;;;;;27.42;16.40;;;;;;;22.24;100.00;101292.16;5015358;28;20102;-62
2023/06/29 07:51:03;;;;;;;27.48;16.38;;;;;;;22.72;100.00;101291.25;5015622;28;20504;-65
2023/06/29 07:53:29;;;;;;;27.33;16.63;;;;;;;22.84;100.00;101284.47;5015639;28;20030;-64
2023/06/29 07:55:54;;;;;;;27.67;16.38;;;;;;;22.95;100.00;101286.72;5015475;28;20054;-62
2023/06/29 07:58:19;;;;;;;29.15;16.98;;;;;;;23.01;100.00;101293.69;5015690;28;20038;-65
2023/06/29 08:00:45;;;;;;;27.90;16.30;;;;;;;23.00;98.75;101294.66;5015314;28;20109;-64
2023/06/29 08:03:10;;;;;;;26.88;16.00;;;;;;;22.81;100.00;101288.16;5015306;28;20030;-65
2023/06/29 08:05:35;;;;;;;28.85;16.38;;;;;;;22.66;99.72;101291.50;5015698;28;20033;-62
2023/06/29 08:08:00;;;;;;;28.02;15.85;;;;;;;22.59;100.00;101282.75;5015057;28;20393;-65
2023/06/29 08:10:26;;;;;;;26.58;16.08;;;;;;;22.49;100.00;101284.06;5015195;28;20477;-65
2023/06/29 08:12:52;;;;;;;26.75;16.27;;;;;;;22.55;100.00;101285.63;5015326;28;20465;-65
2023/06/29 08:15:17;;;;;;;27.98;16.10;;;;;;;22.60;100.00;101281.81;5015130;28;20038;-65
2023/06/29 08:17:42;;;;;;;27.48;16.30;;;;;;;22.69;100.00;101282.38;5014945;28;20111;-64
2023/06/29 08:20:12;;;;;;;27.92;16.17;;;;;;;22.81;99.10;101279.22;5015363;28;20393;-66
2023/06/29 08:22:43;;;;;;;27.55;16.23;;;;;;;22.84;100.00;101284.47;4998016;28;20046;-65
2023/06/29 08:25:08;;;;;;;27.35;16.10;;;;;;;22.92;97.75;101287.75;5014952;28;20036;-65
2023/06/29 08:27:35;;;;;;;27.70;17.50;;;;;;;22.99;96.01;101291.06;5014987;28;20033;-63
2023/06/29 08:30:00;;;;;;;28.25;17.15;;;;;;;23.06;95.42;101292.56;5014879;28;20113;-65
2023/06/29 08:32:26;;;;;;;27.88;16.83;;;;;;;23.02;100.00;101293.63;5014849;28;20123;-64
2023/06/29 08:34:51;;;;;;;28.05;16.90;;;;;;;23.09;96.65;101288.88;5014928;28;20033;-64
2023/06/29 08:37:17;;;;;;;27.67;16.98;;;;;;;23.07;95.05;101297.03;5014624;28;20045;-66
2023/06/29 08:39:42;;;;;;;28.65;17.10;;;;;;;22.89;95.66;101297.75;5014545;28;20041;-66
2023/06/29 08:42:07;;;;;;;27.20;16.88;;;;;;;22.86;97.46;101287.97;5014226;28;20076;-64
2023/06/29 08:44:33;;;;;;;28.55;17.65;;;;;;;23.00;93.93;101295.53;5014466;28;20481;-64
2023/06/29 08:47:01;;;;;;;28.55;17.13;;;;;;;23.12;91.40;101289.66;5014672;28;20041;-62
2023/06/29 08:49:27;;;;;;;28.05;17.70;;;;;;;23.21;91.67;101288.41;5014899;28;20033;-64
2023/06/29 08:51:57;;;;;;;34.70;17.50;;;;;;;23.29;87.92;101290.78;5014330;28;20058;-66
2023/06/29 08:54:24;;;;;;;29.13;17.67;;;;;;;23.58;85.65;101289.53;5014644;28;20045;-66
2023/06/29 08:56:50;;;;;;;27.83;16.77;;;;;;;23.67;90.06;101286.44;5014413;28;20421;-65
2023/06/29 08:59:16;;;;;;;28.10;17.08;;;;;;;23.68;87.36;101285.50;5014255;28;20045;-65
2023/06/29 09:01:41;;;;;;;28.40;17.35;;;;;;;24.04;83.23;101278.53;5014147;28;20113;-65
2023/06/29 09:04:06;;;;;;;27.52;16.77;;;;;;;24.30;75.53;101274.66;5014237;28;20030;-65
2023/06/29 09:06:32;;;;;;;27.67;16.70;;;;;;;24.54;75.95;101277.16;5014075;28;20041;-65
2023/06/29 09:08:58;;;;;;;28.42;16.58;;;;;;;24.49;75.31;101269.28;5014110;28;20038;-63
2023/06/29 09:11:24;;;;;;;27.10;16.60;;;;;;;24.42;76.46;101277.72;5010353;28;20436;-65
2023/06/29 09:13:49;;;;;;;28.48;17.33;;;;;;;24.34;79.36;101276.25;5013913;28;20026;-65
2023/06/29 09:16:18;;;;;;;28.48;17.10;;;;;;;24.04;74.85;101278.53;5014101;28;20096;-67
2023/06/29 09:18:48;;;;;;;28.67;17.27;;;;;;;23.96;78.73;101276.22;5013884;28;20046;-67
2023/06/29 09:21:16;;;;;;;28.75;17.23;;;;;;;23.95;81.31;101278.97;5012428;28;20373;-68
2023/06/29 09:23:43;;;;;;;29.48;17.45;;;;;;;24.01;80.65;101279.59;5002428;28;20030;-66
2023/06/29 09:26:08;;;;;;;28.15;16.92;;;;;;;23.87;80.87;101276.63;5004847;28;20584;-68
2023/06/29 09:28:36;;;;;;;29.17;16.73;;;;;;;23.80;80.86;101275.97;5003348;28;20038;-67
2023/06/29 09:31:12;;;;;;;27.17;16.38;;;;;;;23.70;81.11;101268.38;5003915;28;20031;-68
2023/06/29 09:33:37;;;;;;;27.88;16.60;;;;;;;23.70;79.44;101279.16;5003401;28;20156;-67
2023/06/29 09:36:07;;;;;;;28.60;16.77;;;;;;;23.55;83.56;101272.59;5003951;28;20484;-67
2023/06/29 09:38:33;;;;;;;28.02;17.30;;;;;;;23.74;81.84;101273.56;5003483;28;20038;-66
2023/06/29 09:40:59;;;;;;;28.13;17.10;;;;;;;23.76;85.14;101268.97;5003443;28;20133;-66
2023/06/29 09:43:29;;;;;;;27.55;16.65;;;;;;;23.85;82.47;101273.06;5004322;28;20038;-65
2023/06/29 09:46:07;;;;;;;28.58;17.00;;;;;;;23.87;84.51;101276.63;5002820;28;20389;-66
2023/06/29 09:48:32;;;;;;;28.55;17.52;;;;;;;23.78;81.53;101276.97;5003331;28;20057;-63
2023/06/29 09:50:58;;;;;;;27.70;17.08;;;;;;;23.66;82.01;101276.59;5003291;28;20027;-68
2023/06/29 09:53:33;;;;;;;27.92;17.30;;;;;;;23.55;84.12;101276.19;5004299;28;20545;-67
2023/06/29 09:55:59;;;;;;;28.80;17.80;;;;;;;23.61;82.45;101275.91;5002966;28;20433;-65
2023/06/29 09:58:28;;;;;;;28.35;17.60;;;;;;;23.78;84.30;101266.19;5004740;28;20026;-67
2023/06/29 10:00:58;;;;;;;28.70;17.50;;;;;;;23.94;80.16;101278.13;5002628;28;20026;-67
2023/06/29 10:03:24;;;;;;;29.05;17.58;;;;;;;23.94;78.69;101272.72;5004403;28;20477;-69
2023/06/29 10:05:54;;;;;;;28.60;17.55;;;;;;;23.94;78.68;101275.41;5001752;28;20030;-68
2023/06/29 10:08:22;;;;;;;29.38;18.95;;;;;;;23.94;75.12;101288.91;5005224;28;20490;-68
2023/06/29 10:10:51;;;;;;;29.67;18.83;;;;;;;23.84;75.46;101276.75;5001863;28;20381;-68
2023/06/29 10:13:17;;;;;;;29.15;18.70;;;;;;;23.91;78.49;101267.47;5009349;28;20182;-68
2023/06/29 10:15:43;;;;;;;29.77;18.50;;;;;;;24.06;75.03;101267.69;5013152;28;20544;-69
2023/06/29 10:18:14;;;;;;;30.13;18.20;;;;;;;23.99;77.05;101270.66;5012713;28;20172;-68
2023/06/29 10:20:43;;;;;;;29.98;18.58;;;;;;;23.97;79.79;101275.28;5013012;28;20022;-71
2023/06/29 10:23:11;;;;;;;31.38;18.42;;;;;;;24.01;77.31;101281.38;5013107;28;20038;-68
2023/06/29 10:25:41;;;;;;;29.48;18.83;;;;;;;24.01;79.81;101268.78;5013062;28;20030;-69
2023/06/29 10:28:08;;;;;;;29.92;19.27;;;;;;;24.08;76.40;101271.19;5012736;28;20160;-69
2023/06/29 10:30:47;;;;;;;29.42;18.55;;;;;;;24.04;79.04;101269.59;5012798;28;20022;-68
2023/06/29 10:33:14;;;;;;;29.90;18.90;;;;;;;23.98;77.40;101277.03;4995352;28;20384;-69
2023/06/29 10:35:40;;;;;;;30.77;19.30;;;;;;;23.76;78.47;101268.09;5013101;28;20096;-69
2023/06/29 10:38:14;;;;;;;30.83;19.48;;;;;;;23.62;78.88;101277.69;5012765;28;20022;-68
2023/06/29 10:40:47;;;;;;;30.63;19.58;;;;;;;23.48;76.75;101269.31;5012676;28;20065;-69
2023/06/29 10:43:13;;;;;;;30.77;19.30;;;;;;;23.41;78.33;101278.59;5012920;28;20033;-65
2023/06/29 10:45:39;;;;;;;31.13;20.15;;;;;;;23.53;77.32;101280.75;5012691;28;20029;-65
2023/06/29 10:48:06;;;;;;;30.55;19.60;;;;;;;23.59;74.89;101279.63;5012583;28;20041;-65
2023/06/29 10:50:39;;;;;;;30.80;19.83;;;;;;;23.51;77.21;101274.56;5012554;28;20030;-61
2023/06/29 10:53:05;;;;;;;;;;;;;;;23.49;77.42;101269.22;5013113;28;20034;-66
2023/06/29 10:55:54;;;;;;;30.85;19.92;;;;;;;23.53;80.46;101271.78;4994881;28;20280;-66
2023/06/29 10:58:31;;;;;;;30.63;19.67;;;;;;;23.38;79.39;101268.81;5009138;28;20022;-65
2023/06/29 11:00:57;;;;;;;31.38;20.20;;;;;;;23.67;79.03;101272.94;5010043;28;20076;-65